Terminal Aerodrome Forecast
Issued by NWS

Home | Current Version | Previous Version | Text Only | Print | Product List | Glossary On
Versions: 1 2 3 4 5 6 7 8 9 10 11 12 13 14 15 16 17 18 19
284
FTUS43 KSGF 261129
TAFBBG
TAF
KBBG 261129Z 2612/2712 14008KT P6SM BKN200
     FM261800 20007KT P6SM BKN050
     FM270100 VRB03KT P6SM VCTS BKN030CB
     FM270700 VRB03KT 3SM BR BKN004=

USA.gov is the U.S. government's official web portal to all federal, state and local government web resources and services.